createdAt,value
2023-05-06T00:00:17.535Z,12.31
2023-05-06T00:05:19.409Z,12.21
2023-05-06T00:10:21.412Z,12.14
2023-05-06T00:15:23.371Z,12.14
2023-05-06T00:20:25.533Z,12.13
2023-05-06T00:25:27.420Z,12.16
2023-05-06T00:30:29.581Z,12.12
2023-05-06T00:35:31.559Z,12.11
2023-05-06T00:40:33.405Z,12.21
2023-05-06T00:45:35.623Z,12.18
2023-05-06T00:50:39.667Z,12.13
2023-05-06T00:55:41.787Z,12.15
2023-05-06T01:00:43.726Z,12.15
2023-05-06T01:05:59.964Z,12.20
2023-05-06T01:11:15.790Z,12.14
2023-05-06T01:16:20.682Z,12.11
2023-05-06T01:21:24.257Z,12.08
2023-05-06T01:26:27.402Z,12.05
2023-05-06T01:31:43.062Z,12.01
2023-05-06T01:37:20.458Z,12.00
2023-05-06T01:42:24.685Z,12.08
2023-05-06T01:47:27.126Z,12.06
2023-05-06T01:52:29.002Z,12.11
2023-05-06T01:57:30.927Z,12.12
2023-05-06T02:02:32.850Z,12.19
2023-05-06T02:07:34.671Z,12.23
2023-05-06T02:12:36.791Z,12.20
2023-05-06T02:17:38.910Z,12.19
2023-05-06T02:22:40.834Z,12.00
2023-05-06T02:27:42.740Z,12.01
2023-05-06T02:32:44.617Z,12.00
2023-05-06T02:37:46.441Z,11.96
2023-05-06T02:42:48.399Z,11.83
2023-05-06T02:47:50.281Z,11.79
2023-05-06T02:52:52.238Z,11.73
2023-05-06T02:57:54.094Z,11.70
2023-05-06T03:02:56.018Z,11.69
2023-05-06T03:07:58.023Z,11.70
2023-05-06T03:12:59.991Z,11.68
2023-05-06T03:18:03.141Z,11.67
2023-05-06T03:23:05.438Z,11.68
2023-05-06T03:28:07.467Z,11.65
2023-05-06T03:33:12.253Z,11.58
2023-05-06T03:38:14.493Z,11.54
2023-05-06T03:43:26.128Z,11.48
2023-05-06T03:48:32.234Z,11.43
2023-05-06T03:53:34.327Z,11.40
2023-05-06T03:58:38.389Z,11.33
2023-05-06T04:03:42.944Z,11.35
2023-05-06T04:08:44.966Z,11.35
2023-05-06T04:13:47.104Z,11.40
2023-05-06T04:18:52.984Z,11.42
2023-05-06T04:23:54.872Z,11.54
2023-05-06T04:29:03.744Z,11.53
2023-05-06T04:34:08.278Z,11.50
2023-05-06T04:39:10.638Z,11.55
2023-05-06T04:44:14.080Z,11.53
2023-05-06T04:49:18.519Z,11.62
2023-05-06T04:54:20.515Z,11.65
2023-05-06T04:59:22.511Z,11.65
2023-05-06T05:04:24.564Z,11.56
2023-05-06T05:09:26.514Z,11.59
2023-05-06T05:14:28.595Z,11.81
2023-05-06T05:19:30.642Z,11.93
2023-05-06T05:24:32.577Z,11.93
2023-05-06T05:29:34.638Z,12.07
2023-05-06T05:34:39.373Z,12.13
2023-05-06T05:39:41.654Z,12.12
2023-05-06T05:44:45.841Z,12.16
2023-05-06T05:49:47.698Z,12.55
2023-05-06T05:54:51.628Z,13.15
2023-05-06T05:59:53.693Z,13.37
2023-05-06T06:04:55.740Z,13.34
2023-05-06T06:09:58.185Z,13.18
2023-05-06T06:15:00.126Z,13.06
2023-05-06T06:20:02.126Z,13.06
2023-05-06T06:25:04.279Z,13.18
2023-05-06T06:30:07.885Z,13.23
2023-05-06T06:35:09.963Z,13.13
2023-05-06T06:40:12.583Z,13.03
2023-05-06T06:45:14.744Z,13.04
2023-05-06T06:50:16.623Z,13.23
2023-05-06T06:55:18.580Z,13.22
2023-05-06T07:00:20.427Z,13.34
2023-05-06T07:05:23.420Z,13.37
2023-05-06T07:10:25.330Z,13.27
2023-05-06T07:15:27.232Z,13.50
2023-05-06T07:20:29.076Z,13.62
2023-05-06T07:25:31.428Z,13.70
2023-05-06T07:30:33.596Z,13.66
2023-05-06T07:35:36.950Z,13.71
2023-05-06T07:40:38.811Z,13.56
2023-05-06T07:45:41.180Z,13.45
2023-05-06T07:50:43.035Z,13.31
2023-05-06T07:55:44.898Z,13.23
2023-05-06T08:00:46.785Z,13.56
2023-05-06T08:05:53.635Z,14.34
2023-05-06T08:10:56.355Z,14.69
2023-05-06T08:15:58.271Z,14.63
2023-05-06T08:21:00.169Z,14.78
2023-05-06T08:26:02.063Z,14.68
2023-05-06T08:31:03.928Z,14.04
2023-05-06T08:36:05.970Z,13.68
2023-05-06T08:41:11.953Z,13.31
2023-05-06T08:46:14.601Z,13.67
2023-05-06T08:51:16.991Z,13.97
2023-05-06T08:56:20.218Z,14.58
2023-05-06T09:01:22.293Z,15.14
2023-05-06T09:06:25.132Z,15.62
2023-05-06T09:11:30.642Z,15.45
2023-05-06T09:16:32.741Z,15.90
2023-05-06T09:21:34.649Z,16.21
2023-05-06T09:26:39.473Z,16.50
2023-05-06T09:31:46.164Z,16.70
2023-05-06T09:36:48.085Z,16.52
2023-05-06T09:41:50.157Z,16.58
2023-05-06T09:46:52.300Z,15.76
2023-05-06T09:51:54.172Z,15.53
2023-05-06T09:56:57.057Z,15.58
2023-05-06T10:02:00.437Z,16.80
2023-05-06T10:07:04.114Z,16.70
2023-05-06T10:12:08.758Z,15.74
2023-05-06T10:17:12.666Z,15.75
2023-05-06T10:22:56.745Z,16.67
2023-05-06T10:28:00.054Z,17.59
2023-05-06T10:33:10.826Z,18.95
2023-05-06T10:38:28.474Z,17.88
2023-05-06T10:43:32.340Z,17.49
2023-05-06T10:48:35.688Z,18.12
2023-05-06T10:54:00.379Z,17.47
2023-05-06T10:59:12.903Z,18.07
2023-05-06T11:04:18.752Z,19.83
2023-05-06T11:09:21.996Z,19.15
2023-05-06T11:14:37.361Z,21.18
2023-05-06T11:19:40.102Z,25.70
2023-05-06T11:24:43.747Z,24.56
2023-05-06T11:29:45.602Z,24.26
2023-05-06T11:34:47.469Z,28.02
2023-05-06T11:39:49.685Z,28.80
2023-05-06T11:44:55.226Z,27.19
2023-05-06T11:49:58.605Z,28.20
2023-05-06T11:55:00.575Z,28.83
2023-05-06T12:00:05.043Z,30.11
2023-05-06T12:05:13.831Z,30.21
2023-05-06T12:10:17.266Z,29.09
2023-05-06T12:15:19.314Z,28.15
2023-05-06T12:20:22.524Z,29.19
2023-05-06T12:25:24.314Z,28.16
2023-05-06T12:30:31.286Z,24.67
2023-05-06T12:35:33.211Z,22.88
2023-05-06T12:40:35.339Z,28.05
2023-05-06T12:45:40.965Z,31.40
2023-05-06T12:50:45.061Z,29.43
2023-05-06T12:55:46.912Z,31.16
2023-05-06T13:00:48.794Z,28.27
2023-05-06T13:05:51.892Z,28.70
2023-05-06T13:10:53.829Z,24.26
2023-05-06T13:15:56.487Z,26.76
2023-05-06T13:21:00.289Z,28.39
2023-05-06T13:26:05.985Z,31.46
2023-05-06T13:31:08.597Z,32.36
2023-05-06T13:36:10.668Z,26.40
2023-05-06T13:41:12.710Z,26.37
2023-05-06T13:46:14.644Z,26.77
2023-05-06T13:51:16.551Z,30.93
2023-05-06T13:56:18.394Z,29.77
2023-05-06T14:01:24.538Z,28.59
2023-05-06T14:06:27.699Z,31.92
2023-05-06T14:11:29.774Z,31.13
2023-05-06T14:16:31.803Z,32.62
2023-05-06T14:21:34.629Z,30.78
2023-05-06T14:26:36.533Z,32.70
2023-05-06T14:31:38.478Z,32.67
2023-05-06T14:36:40.452Z,34.02
2023-05-06T14:41:42.289Z,33.67
2023-05-06T14:46:44.130Z,27.33
2023-05-06T14:51:49.903Z,26.65
2023-05-06T14:56:51.818Z,27.54
2023-05-06T15:01:53.745Z,24.93
2023-05-06T15:06:57.751Z,25.21
2023-05-06T15:12:00.554Z,26.62
2023-05-06T15:17:02.421Z,22.51
2023-05-06T15:22:04.505Z,20.66
2023-05-06T15:27:07.005Z,20.44
2023-05-06T15:32:09.138Z,22.00
2023-05-06T15:37:13.302Z,19.69
2023-05-06T15:42:16.717Z,19.24
2023-05-06T15:47:18.799Z,18.10
2023-05-06T15:52:21.256Z,17.40
2023-05-06T15:57:23.176Z,16.51
2023-05-06T16:02:27.277Z,17.03
2023-05-06T16:07:29.976Z,17.71
2023-05-06T16:12:32.723Z,17.44
2023-05-06T16:17:37.681Z,16.88
2023-05-06T16:22:40.554Z,16.85
2023-05-06T16:27:42.391Z,16.50
2023-05-06T16:32:44.437Z,15.58
2023-05-06T16:37:46.332Z,15.73
2023-05-06T16:42:49.654Z,15.34
2023-05-06T16:47:51.648Z,14.91
2023-05-06T16:52:54.080Z,15.12
2023-05-06T16:57:56.043Z,14.74
2023-05-06T17:02:58.086Z,14.54
2023-05-06T17:07:59.988Z,14.79
2023-05-06T17:13:01.949Z,14.61
2023-05-06T17:18:04.024Z,14.25
2023-05-06T17:23:05.930Z,13.98
2023-05-06T17:28:07.750Z,13.57
2023-05-06T17:33:09.930Z,13.53
2023-05-06T17:38:13.008Z,13.32
2023-05-06T17:43:14.833Z,13.15
2023-05-06T17:48:16.702Z,12.88
2023-05-06T17:53:18.589Z,12.77
2023-05-06T17:58:21.486Z,12.52
2023-05-06T18:03:23.855Z,12.32
2023-05-06T18:08:25.756Z,12.10
2023-05-06T18:13:27.615Z,11.94
2023-05-06T18:18:29.600Z,11.87
2023-05-06T18:23:31.605Z,11.74
2023-05-06T18:28:37.872Z,11.55
2023-05-06T18:33:39.694Z,11.43
2023-05-06T18:38:41.579Z,11.28
2023-05-06T18:43:43.409Z,11.14
2023-05-06T18:48:45.521Z,10.99
2023-05-06T18:53:47.774Z,10.87
2023-05-06T18:58:49.621Z,10.85
2023-05-06T19:03:54.334Z,11.00
2023-05-06T19:08:56.262Z,10.86
2023-05-06T19:13:58.208Z,10.71
2023-05-06T19:19:02.610Z,10.60
2023-05-06T19:24:05.872Z,10.46
2023-05-06T19:29:07.769Z,10.39
2023-05-06T19:34:09.887Z,10.32
2023-05-06T19:39:11.675Z,10.22
2023-05-06T19:44:14.078Z,10.25
2023-05-06T19:49:15.945Z,10.42
2023-05-06T19:54:19.431Z,10.48
2023-05-06T19:59:21.283Z,10.42
2023-05-06T20:04:23.085Z,10.45
2023-05-06T20:09:24.900Z,10.41
2023-05-06T20:14:26.760Z,10.43
2023-05-06T20:19:31.962Z,10.46
2023-05-06T20:24:34.834Z,10.45
2023-05-06T20:29:36.701Z,10.51
2023-05-06T20:34:38.596Z,10.50
2023-05-06T20:39:40.666Z,10.36
2023-05-06T20:44:43.441Z,10.37
2023-05-06T20:49:45.296Z,10.33
2023-05-06T20:54:47.440Z,10.28
2023-05-06T20:59:52.527Z,10.14
2023-05-06T21:04:54.585Z,10.15
2023-05-06T21:09:56.407Z,10.09
2023-05-06T21:14:59.697Z,10.10
2023-05-06T21:20:02.044Z,10.13
2023-05-06T21:25:06.042Z,10.19
2023-05-06T21:30:09.087Z,10.19
2023-05-06T21:35:11.108Z,10.13
2023-05-06T21:40:13.368Z,10.14
2023-05-06T21:45:16.290Z,10.09
2023-05-06T21:50:18.203Z,10.00
2023-05-06T21:55:20.065Z,9.86
2023-05-06T22:00:23.014Z,9.81
2023-05-06T22:05:25.178Z,9.67
2023-05-06T22:10:26.984Z,9.68
2023-05-06T22:15:28.824Z,9.62
2023-05-06T22:20:30.780Z,9.55
2023-05-06T22:25:32.552Z,9.46
2023-05-06T22:30:34.363Z,9.36
2023-05-06T22:35:36.236Z,9.27
2023-05-06T22:40:38.074Z,9.31
2023-05-06T22:45:39.932Z,9.33
2023-05-06T22:50:42.035Z,9.23
2023-05-06T22:55:45.430Z,9.18
2023-05-06T23:00:48.061Z,9.15
2023-05-06T23:05:50.191Z,9.11
2023-05-06T23:10:52.108Z,9.14
2023-05-06T23:15:53.962Z,9.10
2023-05-06T23:20:55.777Z,9.09
2023-05-06T23:25:57.629Z,9.09
2023-05-06T23:30:59.533Z,9.03
2023-05-06T23:36:02.481Z,8.97
2023-05-06T23:41:04.343Z,8.93
2023-05-06T23:46:06.267Z,8.94
2023-05-06T23:51:08.155Z,8.91
2023-05-06T23:56:09.978Z,8.91
